Pride Of Kent — MQCJ2 — position and weather

sailwx.info

Track history (hours):
 
Tides and Currents Weather Stations Pressure Air Temp Water Temp Dewpoint Dewpoint Depression Visibility Wind Speed Wind Dir Waves Ship Positions

Pride Of Kent

Operator: P & O Ferries

Last reported at 2017-Jan-23 16:33 UTC. Time now 2017-Jan-23 16:46 UTC.
Position N 51°02' E 001°36'.

Length 180 m; draft 6 m.

Type: Passenger vessel. MMSI: 232009000.

Date/timePositionNaut miles runAvg speedWind from/ knotsBaromVisibWave heightAir tempDewpointWater temp
2017-Jan-23 16:33N 51°02' E 001°36'1010.4
2017-Jan-23 15:33N 50°58' E 001°51'5 5.0
2017-Jan-23 14:34N 50°58' E 001°43'1717.0
2017-Jan-23 13:33N 51°07' E 001°20'0 0.1
2017-Jan-23 12:32N 51°07' E 001°20'9 8.7
2017-Jan-23 11:34N 51°04' E 001°33'1312.9
2017-Jan-23 10:33N 50°58' E 001°51'2 2.4
2017-Jan-23 09:34N 50°58' E 001°47'1919.0
2017-Jan-23 08:33N 51°07' E 001°21'0 0.3
2017-Jan-23 07:33N 51°07' E 001°20'4 4.2
2017-Jan-23 06:33N 51°06' E 001°26'1717.2
2017-Jan-23 05:34N 50°58' E 001°51'0 0.3
2017-Jan-23 04:34N 50°58' E 001°50'1616.5
2017-Jan-23 03:34N 51°05' E 001°26'5 4.6
2017-Jan-23 02:33N 51°07' E 001°20'4 3.7
2017-Jan-23 01:33N 51°07' E 001°26'1615.5
2017-Jan-23 00:33N 50°58' E 001°46'3 3.0
2017-Jan-22 23:33N 50°58' E 001°51'1515.0
2017-Jan-22 22:33N 51°02' E 001°28'7 7.0
2017-Jan-22 21:32N 51°07' E 001°20'7 7.1
2017-Jan-22 20:34N 51°07' E 001°31'1615.5
2017-Jan-22 19:34N 50°58' E 001°51'0 0.5
2017-Jan-22 18:33N 50°58' E 001°50'1818.3
2017-Jan-22 17:33N 51°06' E 001°24'3 2.7
2017-Jan-22 16:32N 51°07' E 001°20'1313.8
2017-Jan-22 15:33N 51°01' E 001°39'8 8.1
2017-Jan-22 14:33N 50°58' E 001°51'9 8.7
2017-Jan-22 13:33N 50°58' E 001°37'1414.2
2017-Jan-22 12:33N 51°07' E 001°20'4 4.5
2017-Jan-22 11:33N 51°06' E 001°27'1717.1
2017-Jan-22 10:33N 50°58' E 001°51'1 0.6
2017-Jan-22 09:33N 50°58' E 001°50'1818.4
2017-Jan-22 08:33N 51°06' E 001°23'2 1.7
2017-Jan-22 07:33N 51°07' E 001°21'1717.4
2017-Jan-22 06:33N 50°58' E 001°45'4 3.7
2017-Jan-22 05:33N 50°58' E 001°51'5 4.7
2017-Jan-22 04:34N 50°58' E 001°44'1111.1
2017-Jan-22 03:33N 51°03' E 001°28'7 6.3
2017-Jan-22 02:29N 51°07' E 001°20'1011.1
2017-Jan-22 01:34N 51°02' E 001°34'1111.3
2017-Jan-22 00:33N 50°58' E 001°51'7 6.8
2017-Jan-21 23:33N 50°58' E 001°40'1613.6
2017-Jan-21 22:24N 51°07' E 001°20'6 7.4
2017-Jan-21 21:33N 51°05' E 001°29'1515.3
2017-Jan-21 20:33N 50°58' E 001°51'2 2.4
2017-Jan-21 19:33N 50°58' E 001°47'1918.9
2017-Jan-21 18:33N 51°06' E 001°21'6 5.8
2017-Jan-21 17:33N 51°05' E 001°30'1515.2
2017-Jan-21 16:33N 50°58' E 001°51'0 0.0
2017-Jan-21 15:33N 50°58' E 001°51'1313.3
2017-Jan-21 14:33N 51°02' E 001°31'9 6.1
2017-Jan-21 13:09N 51°07' E 001°20'712.5
2017-Jan-21 12:33N 51°04' E 001°31'1414.1
2017-Jan-21 11:33N 50°58' E 001°51'5 5.1
2017-Jan-21 10:33N 50°58' E 001°43'1714.1
2017-Jan-21 09:20N 51°07' E 001°20'0 0.0
2017-Jan-21 08:31N 51°07' E 001°20'0 0.0
2017-Jan-21 07:25N 51°07' E 001°20'1113.2
2017-Jan-21 06:33N 51°03' E 001°37'10 9.7
2017-Jan-21 05:30N 50°58' E 001°51'2 1.9
2017-Jan-21 04:33N 50°58' E 001°48'1717.3
2017-Jan-21 03:33N 51°06' E 001°24'3 2.6
2017-Jan-21 02:30N 51°07' E 001°20'5 4.9
2017-Jan-21 01:33N 51°07' E 001°27'1615.6
2017-Jan-21 00:33N 50°58' E 001°48'2 1.9
2017-Jan-20 23:34N 50°58' E 001°51'1413.6
2017-Jan-20 22:34N 51°01' E 001°30'9 7.0
2017-Jan-20 21:19N 51°07' E 001°20'6 7.3
2017-Jan-20 20:33N 51°06' E 001°29'1616.1
2017-Jan-20 19:33N 50°58' E 001°51'1 0.7
2017-Jan-20 18:33N 50°58' E 001°50'1716.9
2017-Jan-20 17:34N 51°05' E 001°25'4 4.0
2017-Jan-20 16:32N 51°07' E 001°20'1616.3
2017-Jan-20 15:33N 50°60' E 001°42'6 5.7
2017-Jan-20 14:33N 50°58' E 001°51'1110.8
2017-Jan-20 13:33N 51°01' E 001°35'1111.2
2017-Jan-20 12:33N 51°07' E 001°20'6 6.3
2017-Jan-20 11:33N 51°05' E 001°29'1515.2
2017-Jan-20 10:33N 50°58' E 001°51'3 3.1
2017-Jan-20 09:34N 50°58' E 001°46'1818.2
2017-Jan-20 08:33N 51°07' E 001°21'1 0.7
2017-Jan-20 07:33N 51°07' E 001°20'1212.4
2017-Jan-20 06:34N 51°01' E 001°37'9 9.0
2017-Jan-20 05:32N 50°58' E 001°51'1 0.6
2017-Jan-20 04:33N 50°58' E 001°50'1717.0
2017-Jan-20 03:34N 51°05' E 001°25'4 3.3
2017-Jan-20 02:17N 51°07' E 001°20'7 9.8
2017-Jan-20 01:33N 51°05' E 001°31'1414.5
2017-Jan-20 00:33N 50°58' E 001°51'1 1.4
2017-Jan-19 23:33N 50°58' E 001°49'1312.8
2017-Jan-19 22:33N 51°02' E 001°29'8 7.9
2017-Jan-19 21:32N 51°07' E 001°20'8 8.2
2017-Jan-19 20:33N 51°04' E 001°31'1413.4
2017-Jan-19 19:33N 50°58' E 001°51'2 2.5
2017-Jan-19 18:33N 50°58' E 001°47'1717.0
2017-Jan-19 17:33N 51°06' E 001°23'2 2.4
2017-Jan-19 16:33N 51°07' E 001°20'1414.4
2017-Jan-19 15:34N 51°01' E 001°40'7 7.2
2017-Jan-19 14:33N 50°58' E 001°51'1110.8
2017-Jan-19 13:33N 50°58' E 001°34'1312.7
2017-Jan-19 12:33N 51°07' E 001°20'5 4.7
2017-Jan-19 11:33N 51°05' E 001°27'1716.9
2017-Jan-19 10:33N 50°58' E 001°51'2 2.3
2017-Jan-19 09:34N 50°58' E 001°47'1817.8
2017-Jan-19 08:33N 51°06' E 001°22'2 1.9
2017-Jan-19 07:33N 51°07' E 001°20'10 9.8
2017-Jan-19 06:33N 51°03' E 001°34'1211.7
2017-Jan-19 05:33N 50°58' E 001°51'3 2.7
2017-Jan-19 04:34N 50°58' E 001°47'1817.9
2017-Jan-19 03:34N 51°07' E 001°22'1 1.3
2017-Jan-19 02:33N 51°07' E 001°20'6 6.4
2017-Jan-19 01:33N 51°06' E 001°30'1414.4
2017-Jan-19 00:34N 50°58' E 001°49'1 1.3
2017-Jan-18 23:33N 50°58' E 001°51'1212.2
2017-Jan-18 22:33N 51°01' E 001°32'10 9.6
2017-Jan-18 21:32N 51°07' E 001°20'4 4.0
2017-Jan-18 20:33N 51°06' E 001°26'1817.7
2017-Jan-18 19:33N 50°58' E 001°51'0 0.3
2017-Jan-18 18:33N 50°58' E 001°51'1717.5
2017-Jan-18 17:33N 51°06' E 001°25'4 3.7
2017-Jan-18 16:33N 51°07' E 001°20'1615.9
2017-Jan-18 15:33N 50°59' E 001°41'6 6.0
2017-Jan-18 14:33N 50°58' E 001°51'1312.8
2017-Jan-18 13:34N 51°00' E 001°31'10 9.8
2017-Jan-18 12:33N 51°07' E 001°20'7 7.2
2017-Jan-18 11:33N 51°04' E 001°30'1414.4
2017-Jan-18 10:34N 50°58' E 001°51'3 3.1
2017-Jan-18 09:33N 50°58' E 001°46'1716.6
2017-Jan-18 08:33N 51°06' E 001°23'2 2.0
2017-Jan-18 07:33N 51°07' E 001°20'1919.4
2017-Jan-18 06:34N 50°58' E 001°47'0 0.5
2017-Jan-18 05:33N 50°58' E 001°48'1616.3
2017-Jan-18 04:33N 51°06' E 001°25'4 3.5
2017-Jan-18 03:33N 51°07' E 001°20'1817.7
2017-Jan-18 02:33N 50°58' E 001°44'4 4.2
2017-Jan-18 01:33N 50°58' E 001°51'1312.7
2017-Jan-18 00:34N 51°02' E 001°32'9 8.3
2017-Jan-17 23:27N 51°07' E 001°20'7 8.2
2017-Jan-17 22:33N 51°04' E 001°31'1414.2
2017-Jan-17 21:33N 50°58' E 001°51'3 3.4
2017-Jan-17 20:33N 50°58' E 001°46'1817.6
2017-Jan-17 19:34N 51°07' E 001°22'1 1.0
2017-Jan-17 18:33N 51°07' E 001°20'1414.0
2017-Jan-17 17:33N 51°01' E 001°40'8 7.7
2017-Jan-17 16:33N 50°58' E 001°51'9 9.2
2017-Jan-17 15:33N 50°59' E 001°37'1313.2
2017-Jan-17 14:34N 51°07' E 001°20'0 0.3
2017-Jan-17 13:33N 51°07' E 001°20'1212.4
2017-Jan-17 12:33N 50°59' E 001°35'1010.1
2017-Jan-17 11:33N 50°58' E 001°51'5 5.4
2017-Jan-17 10:33N 50°58' E 001°42'1717.0
2017-Jan-17 09:33N 51°07' E 001°20'0 0.0
2017-Jan-17 08:33N 51°07' E 001°20'4 3.7
2017-Jan-17 07:33N 51°07' E 001°26'8 8.2
2017-Jan-17 06:33N 51°02' E 001°36'1010.0
2017-Jan-17 05:33N 50°58' E 001°51'5 5.0
2017-Jan-17 04:34N 50°58' E 001°43'1716.7
2017-Jan-17 03:33N 51°07' E 001°21'0 0.5
2017-Jan-17 02:31N 51°07' E 001°20'4 4.2
2017-Jan-17 01:34N 51°07' E 001°26'1615.8
2017-Jan-17 00:33N 50°58' E 001°47'2 2.2
2017-Jan-16 23:33N 50°58' E 001°51'1414.1
2017-Jan-16 22:33N 51°03' E 001°30'8 6.0
2017-Jan-16 21:18N 51°07' E 001°20'710.2
2017-Jan-16 20:34N 51°04' E 001°31'1414.1
2017-Jan-16 19:33N 50°58' E 001°51'6 5.6
2017-Jan-16 18:33N 50°58' E 001°42'1616.3
2017-Jan-16 17:33N 51°07' E 001°21'0 0.3
2017-Jan-16 16:33N 51°07' E 001°20'1716.8
2017-Jan-16 15:33N 50°59' E 001°43'5 4.7
2017-Jan-16 14:30N 50°58' E 001°51'1010.6
2017-Jan-16 13:33N 51°01' E 001°36'12 9.5
2017-Jan-16 12:19N 51°07' E 001°20'7 9.3
2017-Jan-16 11:33N 51°05' E 001°31'1514.5
2017-Jan-16 10:33N 50°58' E 001°51'1 0.9
2017-Jan-16 09:33N 50°58' E 001°50'1817.5
2017-Jan-16 08:33N 51°05' E 001°24'3 2.6
2017-Jan-16 07:20N 51°07' E 001°20'1113.8
2017-Jan-16 06:33N 51°02' E 001°35'1110.8
2017-Jan-16 05:33N 50°58' E 001°51'1 0.8
2017-Jan-16 04:33N 50°58' E 001°50'1616.5
2017-Jan-16 03:33N 51°06' E 001°26'4 3.4
2017-Jan-16 02:16N 51°07' E 001°20'1 1.7
2017-Jan-16 01:34N 51°07' E 001°22'1717.4
2017-Jan-16 00:34N 50°58' E 001°45'4 3.5
2017-Jan-15 23:33N 50°58' E 001°51'1313.5
2017-Jan-15 22:33N 51°01' E 001°30'9 8.2
2017-Jan-15 21:30N 51°07' E 001°20'6 5.9
2017-Jan-15 20:33N 51°06' E 001°29'1616.2
2017-Jan-15 19:33N 50°58' E 001°51'1 1.3
2017-Jan-15 18:33N 50°58' E 001°49'1716.7
2017-Jan-15 17:34N 51°06' E 001°25'3 3.5
2017-Jan-15 16:34N 51°07' E 001°20'1817.7
2017-Jan-15 15:33N 50°58' E 001°44'4 4.1
2017-Jan-15 14:34N 50°58' E 001°51'1110.5
2017-Jan-15 13:33N 50°59' E 001°34'12 9.1
2017-Jan-15 12:12N 51°07' E 001°20'812.0
2017-Jan-15 11:33N 51°04' E 001°31'1413.8
2017-Jan-15 10:33N 50°58' E 001°51'2 1.9
2017-Jan-15 09:33N 50°58' E 001°48'1817.8
2017-Jan-15 08:33N 51°06' E 001°23'2 1.8
2017-Jan-15 07:24N 51°07' E 001°20'5 5.6
2017-Jan-15 06:33N 51°06' E 001°27'1716.8
2017-Jan-15 05:33N 50°58' E 001°51'0 0.1
2017-Jan-15 04:33N 50°58' E 001°51'1818.3
2017-Jan-15 03:33N 51°06' E 001°24'3 2.7
2017-Jan-15 02:33N 51°07' E 001°21'1717.0
2017-Jan-15 01:33N 50°59' E 001°44'4 4.3
2017-Jan-15 00:33N 50°58' E 001°51'1212.2
2017-Jan-14 23:33N 51°02' E 001°33'10 9.2
2017-Jan-14 22:31N 51°07' E 001°20'0 0.0
2017-Jan-14 21:17N 51°07' E 001°20'912.4
2017-Jan-14 20:33N 51°03' E 001°33'1312.6
2017-Jan-14 19:33N 50°58' E 001°51'4 3.5
2017-Jan-14 18:33N 50°58' E 001°45'1717.4
2017-Jan-14 17:33N 51°07' E 001°22'0 0.5
2017-Jan-14 16:33N 51°07' E 001°22'1817.9
2017-Jan-14 15:33N 50°58' E 001°46'3 3.0
2017-Jan-14 14:33N 50°58' E 001°51'1312.8
2017-Jan-14 13:33N 51°01' E 001°31'9 7.8
2017-Jan-14 12:21N 51°07' E 001°20'1113.6
2017-Jan-14 11:33N 51°05' E 001°37'1111.2
2017-Jan-14 10:33N 50°58' E 001°51'3 2.7
2017-Jan-14 09:33N 50°58' E 001°47'1817.8
2017-Jan-14 08:33N 51°06' E 001°21'2 1.5
2017-Jan-14 07:24N 51°07' E 001°20'1112.6
2017-Jan-14 06:33N 51°02' E 001°35'1110.9
2017-Jan-14 05:33N 50°58' E 001°51'0 0.5
2017-Jan-14 04:33N 50°58' E 001°50'1716.7
2017-Jan-14 03:33N 51°05' E 001°26'4 1.1
2017-Jan-13 23:33N 51°07' E 001°20'5 4.9
2017-Jan-13 22:33N 51°06' E 001°27'1716.7
2017-Jan-13 21:33N 50°58' E 001°51'1 1.1
2017-Jan-13 20:33N 50°58' E 001°49'1615.8
2017-Jan-13 19:33N 51°05' E 001°26'5 4.6
2017-Jan-13 18:31N 51°07' E 001°20'1313.6
2017-Jan-13 17:33N 51°01' E 001°38'  
Track history (hours):
 
Tides and Currents Weather Stations Pressure Air Temp Water Temp Dewpoint Dewpoint Depression Visibility Wind Speed Wind Dir Waves Ship Positions

Pride Of Kent

Operator: P & O Ferries

Last reported at 2017-Jan-23 16:33 UTC. Time now 2017-Jan-23 16:46 UTC.
Position N 51°02' E 001°36'.

Length 180 m; draft 6 m.

Type: Passenger vessel. MMSI: 232009000.

Date/timePositionNaut miles runAvg speedWind from/ knotsBaromVisibWave heightAir tempDewpointWater temp
2017-Jan-23 16:33N 51°02' E 001°36'1010.4
2017-Jan-23 15:33N 50°58' E 001°51'5 5.0
2017-Jan-23 14:34N 50°58' E 001°43'1717.0
2017-Jan-23 13:33N 51°07' E 001°20'0 0.1
2017-Jan-23 12:32N 51°07' E 001°20'9 8.7
2017-Jan-23 11:34N 51°04' E 001°33'1312.9
2017-Jan-23 10:33N 50°58' E 001°51'2 2.4
2017-Jan-23 09:34N 50°58' E 001°47'1919.0
2017-Jan-23 08:33N 51°07' E 001°21'0 0.3
2017-Jan-23 07:33N 51°07' E 001°20'4 4.2
2017-Jan-23 06:33N 51°06' E 001°26'1717.2
2017-Jan-23 05:34N 50°58' E 001°51'0 0.3
2017-Jan-23 04:34N 50°58' E 001°50'1616.5
2017-Jan-23 03:34N 51°05' E 001°26'5 4.6
2017-Jan-23 02:33N 51°07' E 001°20'4 3.7
2017-Jan-23 01:33N 51°07' E 001°26'1615.5
2017-Jan-23 00:33N 50°58' E 001°46'3 3.0
2017-Jan-22 23:33N 50°58' E 001°51'1515.0
2017-Jan-22 22:33N 51°02' E 001°28'7 7.0
2017-Jan-22 21:32N 51°07' E 001°20'7 7.1
2017-Jan-22 20:34N 51°07' E 001°31'1615.5
2017-Jan-22 19:34N 50°58' E 001°51'0 0.5
2017-Jan-22 18:33N 50°58' E 001°50'1818.3
2017-Jan-22 17:33N 51°06' E 001°24'3 2.7
2017-Jan-22 16:32N 51°07' E 001°20'1313.8
2017-Jan-22 15:33N 51°01' E 001°39'8 8.1
2017-Jan-22 14:33N 50°58' E 001°51'9 8.7
2017-Jan-22 13:33N 50°58' E 001°37'1414.2
2017-Jan-22 12:33N 51°07' E 001°20'4 4.5
2017-Jan-22 11:33N 51°06' E 001°27'1717.1
2017-Jan-22 10:33N 50°58' E 001°51'1 0.6
2017-Jan-22 09:33N 50°58' E 001°50'1818.4
2017-Jan-22 08:33N 51°06' E 001°23'2 1.7
2017-Jan-22 07:33N 51°07' E 001°21'1717.4
2017-Jan-22 06:33N 50°58' E 001°45'4 3.7
2017-Jan-22 05:33N 50°58' E 001°51'5 4.7
2017-Jan-22 04:34N 50°58' E 001°44'1111.1
2017-Jan-22 03:33N 51°03' E 001°28'7 6.3
2017-Jan-22 02:29N 51°07' E 001°20'1011.1
2017-Jan-22 01:34N 51°02' E 001°34'1111.3
2017-Jan-22 00:33N 50°58' E 001°51'7 6.8
2017-Jan-21 23:33N 50°58' E 001°40'1613.6
2017-Jan-21 22:24N 51°07' E 001°20'6 7.4
2017-Jan-21 21:33N 51°05' E 001°29'1515.3
2017-Jan-21 20:33N 50°58' E 001°51'2 2.4
2017-Jan-21 19:33N 50°58' E 001°47'1918.9
2017-Jan-21 18:33N 51°06' E 001°21'6 5.8
2017-Jan-21 17:33N 51°05' E 001°30'1515.2
2017-Jan-21 16:33N 50°58' E 001°51'0 0.0
2017-Jan-21 15:33N 50°58' E 001°51'1313.3
2017-Jan-21 14:33N 51°02' E 001°31'9 6.1
2017-Jan-21 13:09N 51°07' E 001°20'712.5
2017-Jan-21 12:33N 51°04' E 001°31'1414.1
2017-Jan-21 11:33N 50°58' E 001°51'5 5.1
2017-Jan-21 10:33N 50°58' E 001°43'1714.1
2017-Jan-21 09:20N 51°07' E 001°20'0 0.0
2017-Jan-21 08:31N 51°07' E 001°20'0 0.0
2017-Jan-21 07:25N 51°07' E 001°20'1113.2
2017-Jan-21 06:33N 51°03' E 001°37'10 9.7
2017-Jan-21 05:30N 50°58' E 001°51'2 1.9
2017-Jan-21 04:33N 50°58' E 001°48'1717.3
2017-Jan-21 03:33N 51°06' E 001°24'3 2.6
2017-Jan-21 02:30N 51°07' E 001°20'5 4.9
2017-Jan-21 01:33N 51°07' E 001°27'1615.6
2017-Jan-21 00:33N 50°58' E 001°48'2 1.9
2017-Jan-20 23:34N 50°58' E 001°51'1413.6
2017-Jan-20 22:34N 51°01' E 001°30'9 7.0
2017-Jan-20 21:19N 51°07' E 001°20'6 7.3
2017-Jan-20 20:33N 51°06' E 001°29'1616.1
2017-Jan-20 19:33N 50°58' E 001°51'1 0.7
2017-Jan-20 18:33N 50°58' E 001°50'1716.9
2017-Jan-20 17:34N 51°05' E 001°25'4 4.0
2017-Jan-20 16:32N 51°07' E 001°20'1616.3
2017-Jan-20 15:33N 50°60' E 001°42'6 5.7
2017-Jan-20 14:33N 50°58' E 001°51'1110.8
2017-Jan-20 13:33N 51°01' E 001°35'1111.2
2017-Jan-20 12:33N 51°07' E 001°20'6 6.3
2017-Jan-20 11:33N 51°05' E 001°29'1515.2
2017-Jan-20 10:33N 50°58' E 001°51'3 3.1
2017-Jan-20 09:34N 50°58' E 001°46'1818.2
2017-Jan-20 08:33N 51°07' E 001°21'1 0.7
2017-Jan-20 07:33N 51°07' E 001°20'1212.4
2017-Jan-20 06:34N 51°01' E 001°37'9 9.0
2017-Jan-20 05:32N 50°58' E 001°51'1 0.6
2017-Jan-20 04:33N 50°58' E 001°50'1717.0
2017-Jan-20 03:34N 51°05' E 001°25'4 3.3
2017-Jan-20 02:17N 51°07' E 001°20'7 9.8
2017-Jan-20 01:33N 51°05' E 001°31'1414.5
2017-Jan-20 00:33N 50°58' E 001°51'1 1.4
2017-Jan-19 23:33N 50°58' E 001°49'1312.8
2017-Jan-19 22:33N 51°02' E 001°29'8 7.9
2017-Jan-19 21:32N 51°07' E 001°20'8 8.2
2017-Jan-19 20:33N 51°04' E 001°31'1413.4
2017-Jan-19 19:33N 50°58' E 001°51'2 2.5
2017-Jan-19 18:33N 50°58' E 001°47'1717.0
2017-Jan-19 17:33N 51°06' E 001°23'2 2.4
2017-Jan-19 16:33N 51°07' E 001°20'1414.4
2017-Jan-19 15:34N 51°01' E 001°40'7 7.2
2017-Jan-19 14:33N 50°58' E 001°51'1110.8
2017-Jan-19 13:33N 50°58' E 001°34'1312.7
2017-Jan-19 12:33N 51°07' E 001°20'5 4.7
2017-Jan-19 11:33N 51°05' E 001°27'1716.9
2017-Jan-19 10:33N 50°58' E 001°51'2 2.3
2017-Jan-19 09:34N 50°58' E 001°47'1817.8
2017-Jan-19 08:33N 51°06' E 001°22'2 1.9
2017-Jan-19 07:33N 51°07' E 001°20'10 9.8
2017-Jan-19 06:33N 51°03' E 001°34'1211.7
2017-Jan-19 05:33N 50°58' E 001°51'3 2.7
2017-Jan-19 04:34N 50°58' E 001°47'1817.9
2017-Jan-19 03:34N 51°07' E 001°22'1 1.3
2017-Jan-19 02:33N 51°07' E 001°20'6 6.4
2017-Jan-19 01:33N 51°06' E 001°30'1414.4
2017-Jan-19 00:34N 50°58' E 001°49'1 1.3
2017-Jan-18 23:33N 50°58' E 001°51'1212.2
2017-Jan-18 22:33N 51°01' E 001°32'10 9.6
2017-Jan-18 21:32N 51°07' E 001°20'4 4.0
2017-Jan-18 20:33N 51°06' E 001°26'1817.7
2017-Jan-18 19:33N 50°58' E 001°51'0 0.3
2017-Jan-18 18:33N 50°58' E 001°51'1717.5
2017-Jan-18 17:33N 51°06' E 001°25'4 3.7
2017-Jan-18 16:33N 51°07' E 001°20'1615.9
2017-Jan-18 15:33N 50°59' E 001°41'6 6.0
2017-Jan-18 14:33N 50°58' E 001°51'1312.8
2017-Jan-18 13:34N 51°00' E 001°31'10 9.8
2017-Jan-18 12:33N 51°07' E 001°20'7 7.2
2017-Jan-18 11:33N 51°04' E 001°30'1414.4
2017-Jan-18 10:34N 50°58' E 001°51'3 3.1
2017-Jan-18 09:33N 50°58' E 001°46'1716.6
2017-Jan-18 08:33N 51°06' E 001°23'2 2.0
2017-Jan-18 07:33N 51°07' E 001°20'1919.4
2017-Jan-18 06:34N 50°58' E 001°47'0 0.5
2017-Jan-18 05:33N 50°58' E 001°48'1616.3
2017-Jan-18 04:33N 51°06' E 001°25'4 3.5
2017-Jan-18 03:33N 51°07' E 001°20'1817.7
2017-Jan-18 02:33N 50°58' E 001°44'4 4.2
2017-Jan-18 01:33N 50°58' E 001°51'1312.7
2017-Jan-18 00:34N 51°02' E 001°32'9 8.3
2017-Jan-17 23:27N 51°07' E 001°20'7 8.2
2017-Jan-17 22:33N 51°04' E 001°31'1414.2
2017-Jan-17 21:33N 50°58' E 001°51'3 3.4
2017-Jan-17 20:33N 50°58' E 001°46'1817.6
2017-Jan-17 19:34N 51°07' E 001°22'1 1.0
2017-Jan-17 18:33N 51°07' E 001°20'1414.0
2017-Jan-17 17:33N 51°01' E 001°40'8 7.7
2017-Jan-17 16:33N 50°58' E 001°51'9 9.2
2017-Jan-17 15:33N 50°59' E 001°37'1313.2
2017-Jan-17 14:34N 51°07' E 001°20'0 0.3
2017-Jan-17 13:33N 51°07' E 001°20'1212.4
2017-Jan-17 12:33N 50°59' E 001°35'1010.1
2017-Jan-17 11:33N 50°58' E 001°51'5 5.4
2017-Jan-17 10:33N 50°58' E 001°42'1717.0
2017-Jan-17 09:33N 51°07' E 001°20'0 0.0
2017-Jan-17 08:33N 51°07' E 001°20'4 3.7
2017-Jan-17 07:33N 51°07' E 001°26'8 8.2
2017-Jan-17 06:33N 51°02' E 001°36'1010.0
2017-Jan-17 05:33N 50°58' E 001°51'5 5.0
2017-Jan-17 04:34N 50°58' E 001°43'1716.7
2017-Jan-17 03:33N 51°07' E 001°21'0 0.5
2017-Jan-17 02:31N 51°07' E 001°20'4 4.2
2017-Jan-17 01:34N 51°07' E 001°26'1615.8
2017-Jan-17 00:33N 50°58' E 001°47'2 2.2
2017-Jan-16 23:33N 50°58' E 001°51'1414.1
2017-Jan-16 22:33N 51°03' E 001°30'8 6.0
2017-Jan-16 21:18N 51°07' E 001°20'710.2
2017-Jan-16 20:34N 51°04' E 001°31'1414.1
2017-Jan-16 19:33N 50°58' E 001°51'6 5.6
2017-Jan-16 18:33N 50°58' E 001°42'1616.3
2017-Jan-16 17:33N 51°07' E 001°21'0 0.3
2017-Jan-16 16:33N 51°07' E 001°20'1716.8
2017-Jan-16 15:33N 50°59' E 001°43'5 4.7
2017-Jan-16 14:30N 50°58' E 001°51'1010.6
2017-Jan-16 13:33N 51°01' E 001°36'12 9.5
2017-Jan-16 12:19N 51°07' E 001°20'7 9.3
2017-Jan-16 11:33N 51°05' E 001°31'1514.5
2017-Jan-16 10:33N 50°58' E 001°51'1 0.9
2017-Jan-16 09:33N 50°58' E 001°50'1817.5
2017-Jan-16 08:33N 51°05' E 001°24'3 2.6
2017-Jan-16 07:20N 51°07' E 001°20'1113.8
2017-Jan-16 06:33N 51°02' E 001°35'1110.8
2017-Jan-16 05:33N 50°58' E 001°51'1 0.8
2017-Jan-16 04:33N 50°58' E 001°50'1616.5
2017-Jan-16 03:33N 51°06' E 001°26'4 3.4
2017-Jan-16 02:16N 51°07' E 001°20'1 1.7
2017-Jan-16 01:34N 51°07' E 001°22'1717.4
2017-Jan-16 00:34N 50°58' E 001°45'4 3.5
2017-Jan-15 23:33N 50°58' E 001°51'1313.5
2017-Jan-15 22:33N 51°01' E 001°30'9 8.2
2017-Jan-15 21:30N 51°07' E 001°20'6 5.9
2017-Jan-15 20:33N 51°06' E 001°29'1616.2
2017-Jan-15 19:33N 50°58' E 001°51'1 1.3
2017-Jan-15 18:33N 50°58' E 001°49'1716.7
2017-Jan-15 17:34N 51°06' E 001°25'3 3.5
2017-Jan-15 16:34N 51°07' E 001°20'1817.7
2017-Jan-15 15:33N 50°58' E 001°44'4 4.1
2017-Jan-15 14:34N 50°58' E 001°51'1110.5
2017-Jan-15 13:33N 50°59' E 001°34'12 9.1
2017-Jan-15 12:12N 51°07' E 001°20'812.0
2017-Jan-15 11:33N 51°04' E 001°31'1413.8
2017-Jan-15 10:33N 50°58' E 001°51'2 1.9
2017-Jan-15 09:33N 50°58' E 001°48'1817.8
2017-Jan-15 08:33N 51°06' E 001°23'2 1.8
2017-Jan-15 07:24N 51°07' E 001°20'5 5.6
2017-Jan-15 06:33N 51°06' E 001°27'1716.8
2017-Jan-15 05:33N 50°58' E 001°51'0 0.1
2017-Jan-15 04:33N 50°58' E 001°51'1818.3
2017-Jan-15 03:33N 51°06' E 001°24'3 2.7
2017-Jan-15 02:33N 51°07' E 001°21'1717.0
2017-Jan-15 01:33N 50°59' E 001°44'4 4.3
2017-Jan-15 00:33N 50°58' E 001°51'1212.2
2017-Jan-14 23:33N 51°02' E 001°33'10 9.2
2017-Jan-14 22:31N 51°07' E 001°20'0 0.0
2017-Jan-14 21:17N 51°07' E 001°20'912.4
2017-Jan-14 20:33N 51°03' E 001°33'1312.6
2017-Jan-14 19:33N 50°58' E 001°51'4 3.5
2017-Jan-14 18:33N 50°58' E 001°45'1717.4
2017-Jan-14 17:33N 51°07' E 001°22'0 0.5
2017-Jan-14 16:33N 51°07' E 001°22'1817.9
2017-Jan-14 15:33N 50°58' E 001°46'3 3.0
2017-Jan-14 14:33N 50°58' E 001°51'1312.8
2017-Jan-14 13:33N 51°01' E 001°31'9 7.8
2017-Jan-14 12:21N 51°07' E 001°20'1113.6
2017-Jan-14 11:33N 51°05' E 001°37'1111.2
2017-Jan-14 10:33N 50°58' E 001°51'3 2.7
2017-Jan-14 09:33N 50°58' E 001°47'1817.8
2017-Jan-14 08:33N 51°06' E 001°21'2 1.5
2017-Jan-14 07:24N 51°07' E 001°20'1112.6
2017-Jan-14 06:33N 51°02' E 001°35'1110.9
2017-Jan-14 05:33N 50°58' E 001°51'0 0.5
2017-Jan-14 04:33N 50°58' E 001°50'1716.7
2017-Jan-14 03:33N 51°05' E 001°26'4 1.1
2017-Jan-13 23:33N 51°07' E 001°20'5 4.9
2017-Jan-13 22:33N 51°06' E 001°27'1716.7
2017-Jan-13 21:33N 50°58' E 001°51'1 1.1
2017-Jan-13 20:33N 50°58' E 001°49'1615.8
2017-Jan-13 19:33N 51°05' E 001°26'5 4.6
2017-Jan-13 18:31N 51°07' E 001°20'1313.6
2017-Jan-13 17:33N 51°01' E 001°38'  

Dump ship's entire track history